createdAt,value
2019-05-14T00:02:12.334Z,85.40
2019-05-14T00:04:42.323Z,84.30
2019-05-14T00:07:11.721Z,83.90
2019-05-14T00:09:41.467Z,82.70
2019-05-14T00:12:11.299Z,82.50
2019-05-14T00:14:43.842Z,82.00
2019-05-14T00:17:11.422Z,83.70
2019-05-14T00:19:41.734Z,84.20
2019-05-14T00:22:11.591Z,85.00
2019-05-14T00:24:41.629Z,86.40
2019-05-14T00:27:11.502Z,86.20
2019-05-14T00:29:41.734Z,88.50
2019-05-14T00:32:11.162Z,89.40
2019-05-14T00:34:42.162Z,89.40
2019-05-14T00:37:11.465Z,90.10
2019-05-14T00:40:01.267Z,89.60
2019-05-14T00:42:31.845Z,90.10
2019-05-14T00:45:01.236Z,90.10
2019-05-14T00:47:31.016Z,91.00
2019-05-14T00:50:02.054Z,90.90
2019-05-14T00:52:31.481Z,91.30
2019-05-14T00:55:01.116Z,91.90
2019-05-14T00:57:31.591Z,92.90
2019-05-14T01:00:01.066Z,92.50
2019-05-14T01:02:31.850Z,93.20
2019-05-14T01:05:01.932Z,94.20
2019-05-14T01:07:31.654Z,94.20
2019-05-14T01:10:01.286Z,94.30
2019-05-14T01:12:31.827Z,94.70
2019-05-14T01:15:07.737Z,93.60
2019-05-14T01:17:31.469Z,93.20
2019-05-14T01:20:02.855Z,93.60
2019-05-14T01:22:31.665Z,93.80
2019-05-14T01:25:01.609Z,93.60
2019-05-14T01:27:31.691Z,93.70
2019-05-14T01:30:02.029Z,94.20
2019-05-14T01:32:31.518Z,95.00
2019-05-14T01:35:01.413Z,94.30
2019-05-14T01:37:31.107Z,93.90
2019-05-14T01:40:01.218Z,94.00
2019-05-14T01:42:31.972Z,93.50
2019-05-14T01:45:24.291Z,94.00
2019-05-14T01:47:43.440Z,93.10
2019-05-14T01:50:12.627Z,94.00
2019-05-14T01:52:41.575Z,93.10
2019-05-14T01:55:11.412Z,92.90
2019-05-14T01:57:42.258Z,93.30
2019-05-14T02:00:11.537Z,93.80
2019-05-14T02:02:41.821Z,94.20
2019-05-14T02:05:12.441Z,94.70
2019-05-14T02:07:42.472Z,94.30
2019-05-14T02:10:11.651Z,94.00
2019-05-14T02:12:42.300Z,93.10
2019-05-14T02:15:12.068Z,93.60
2019-05-14T02:17:41.360Z,93.80
2019-05-14T02:20:12.582Z,94.70
2019-05-14T02:22:41.714Z,93.50
2019-05-14T02:25:11.705Z,93.00
2019-05-14T02:27:41.395Z,92.70
2019-05-14T02:30:11.069Z,93.30
2019-05-14T02:32:40.630Z,93.70
2019-05-14T02:35:10.183Z,93.20
2019-05-14T02:37:40.206Z,93.40
2019-05-14T02:40:09.933Z,94.30
2019-05-14T02:42:40.240Z,93.70
2019-05-14T02:45:09.305Z,93.40
2019-05-14T02:47:39.657Z,93.30
2019-05-14T02:50:10.061Z,93.10
2019-05-14T02:52:40.224Z,92.90
2019-05-14T02:55:10.412Z,93.10
2019-05-14T02:57:39.686Z,93.10
2019-05-14T03:00:10.245Z,93.20
2019-05-14T03:02:40.461Z,93.40
2019-05-14T03:05:10.013Z,93.50
2019-05-14T03:07:39.602Z,93.70
2019-05-14T03:10:09.969Z,94.10
2019-05-14T03:12:39.809Z,93.80
2019-05-14T03:15:09.628Z,94.10
2019-05-14T03:17:40.373Z,94.10
2019-05-14T03:20:09.286Z,94.30
2019-05-14T03:22:55.758Z,94.70
2019-05-14T03:25:12.087Z,95.10
2019-05-14T03:27:41.090Z,94.60
2019-05-14T03:30:12.319Z,94.60
2019-05-14T03:32:43.363Z,94.30
2019-05-14T03:35:13.989Z,94.70
2019-05-14T03:37:42.478Z,94.50
2019-05-14T03:40:11.158Z,94.40
2019-05-14T03:42:40.117Z,94.40
2019-05-14T03:45:09.284Z,94.70
2019-05-14T03:47:39.419Z,94.50
2019-05-14T03:50:10.102Z,94.80
2019-05-14T03:52:39.934Z,94.50
2019-05-14T03:55:09.663Z,94.60
2019-05-14T03:57:39.882Z,94.80
2019-05-14T04:00:10.317Z,94.80
2019-05-14T04:02:39.273Z,94.80
2019-05-14T04:05:09.565Z,94.90
2019-05-14T04:07:39.427Z,94.80
2019-05-14T04:10:10.314Z,95.00
2019-05-14T04:12:41.771Z,95.30
2019-05-14T04:15:11.057Z,95.20
2019-05-14T04:17:42.317Z,95.20
2019-05-14T04:20:11.603Z,95.20
2019-05-14T04:22:40.890Z,95.10
2019-05-14T04:25:11.412Z,95.00
2019-05-14T04:27:40.666Z,95.00
2019-05-14T04:30:10.222Z,95.20
2019-05-14T04:32:40.738Z,95.10
2019-05-14T04:35:09.711Z,95.20
2019-05-14T04:37:39.856Z,95.10
2019-05-14T04:40:10.230Z,95.20
2019-05-14T04:42:40.074Z,95.90
2019-05-14T04:45:11.054Z,95.40
2019-05-14T04:47:42.015Z,95.30
2019-05-14T04:50:10.784Z,95.40
2019-05-14T04:52:40.425Z,95.10
2019-05-14T04:55:09.987Z,94.80
2019-05-14T04:57:39.448Z,94.80
2019-05-14T05:00:12.147Z,94.40
2019-05-14T05:02:40.009Z,94.30
2019-05-14T05:05:09.199Z,94.10
2019-05-14T05:07:40.271Z,93.80
2019-05-14T05:10:10.134Z,93.50
2019-05-14T05:12:38.858Z,93.40
2019-05-14T05:15:09.414Z,93.30
2019-05-14T05:17:47.222Z,93.70
2019-05-14T05:20:09.842Z,93.40
2019-05-14T05:22:39.394Z,93.00
2019-05-14T05:25:08.804Z,93.10
2019-05-14T05:27:38.187Z,93.00
2019-05-14T05:30:08.505Z,92.60
2019-05-14T05:32:38.842Z,92.30
2019-05-14T05:35:09.524Z,92.00
2019-05-14T05:37:38.491Z,92.40
2019-05-14T05:40:09.117Z,92.20
2019-05-14T05:42:38.528Z,91.80
2019-05-14T05:45:08.169Z,91.70
2019-05-14T05:47:38.854Z,91.60
2019-05-14T05:50:08.887Z,91.80
2019-05-14T05:52:38.699Z,91.40
2019-05-14T05:55:08.993Z,90.90
2019-05-14T05:57:39.266Z,90.80
2019-05-14T06:00:09.410Z,90.70
2019-05-14T06:02:40.031Z,90.40
2019-05-14T06:05:09.737Z,90.20
2019-05-14T06:07:39.395Z,89.90
2019-05-14T06:10:08.859Z,89.90
2019-05-14T06:12:38.878Z,89.50
2019-05-14T06:15:08.647Z,88.50
2019-05-14T06:17:39.165Z,88.50
2019-05-14T06:20:08.676Z,87.30
2019-05-14T06:22:38.504Z,87.00
2019-05-14T06:25:10.905Z,86.50
2019-05-14T06:27:39.771Z,86.40
2019-05-14T06:30:09.750Z,85.10
2019-05-14T06:32:38.855Z,84.10
2019-05-14T06:35:08.759Z,83.70
2019-05-14T06:37:38.557Z,83.90
2019-05-14T06:40:08.789Z,82.10
2019-05-14T06:42:39.423Z,80.40
2019-05-14T06:45:09.046Z,80.60
2019-05-14T06:47:38.205Z,78.80
2019-05-14T06:50:08.509Z,76.40
2019-05-14T06:52:38.609Z,72.60
2019-05-14T06:55:08.992Z,71.60
2019-05-14T06:57:39.359Z,74.80
2019-05-14T07:00:09.306Z,76.10
2019-05-14T07:02:43.254Z,74.60
2019-05-14T07:05:08.616Z,73.50
2019-05-14T07:07:39.970Z,72.80
2019-05-14T07:10:09.209Z,71.00
2019-05-14T07:12:38.691Z,68.00
2019-05-14T07:15:09.253Z,65.30
2019-05-14T07:17:38.635Z,62.30
2019-05-14T07:20:08.982Z,60.70
2019-05-14T07:22:38.952Z,58.30
2019-05-14T07:25:10.681Z,56.80
2019-05-14T07:27:39.438Z,55.20
2019-05-14T07:30:09.212Z,54.50
2019-05-14T07:32:39.586Z,54.60
2019-05-14T07:35:18.154Z,57.20
2019-05-14T07:37:45.838Z,56.90
2019-05-14T07:40:14.876Z,55.20
2019-05-14T07:42:43.251Z,54.70
2019-05-14T07:45:12.243Z,53.40
2019-05-14T07:47:40.743Z,57.40
2019-05-14T07:50:09.644Z,56.30
2019-05-14T07:52:45.479Z,55.50
2019-05-14T07:55:14.314Z,57.30
2019-05-14T07:57:42.739Z,61.00
2019-05-14T08:00:12.918Z,58.90
2019-05-14T08:02:41.363Z,58.50
2019-05-14T08:05:09.844Z,59.00
2019-05-14T08:07:38.819Z,59.90
2019-05-14T08:10:09.027Z,60.00
2019-05-14T08:12:39.149Z,57.30
2019-05-14T08:15:18.309Z,57.80
2019-05-14T08:17:39.791Z,57.50
2019-05-14T08:20:10.319Z,57.60
2019-05-14T08:22:38.907Z,56.60
2019-05-14T08:25:08.695Z,56.50
2019-05-14T08:27:38.861Z,56.00
2019-05-14T08:30:10.344Z,55.60
2019-05-14T08:32:39.157Z,56.30
2019-05-14T08:35:09.058Z,54.80
2019-05-14T08:37:38.749Z,55.40
2019-05-14T08:40:16.399Z,56.20
2019-05-14T08:42:42.549Z,57.30
2019-05-14T08:45:13.917Z,56.90
2019-05-14T08:47:41.585Z,56.60
2019-05-14T08:50:13.660Z,54.80
2019-05-14T08:52:42.191Z,53.50
2019-05-14T08:55:14.098Z,54.10
2019-05-14T08:57:40.925Z,53.10
2019-05-14T09:00:13.694Z,54.50
2019-05-14T09:02:40.547Z,54.50
2019-05-14T09:05:10.918Z,54.00
2019-05-14T09:07:39.700Z,53.10
2019-05-14T09:10:08.807Z,51.70
2019-05-14T09:12:38.759Z,51.70
2019-05-14T09:15:09.832Z,49.70
2019-05-14T09:17:39.114Z,50.30
2019-05-14T09:20:11.082Z,53.10
2019-05-14T09:22:39.816Z,53.90
2019-05-14T09:25:08.850Z,50.70
2019-05-14T09:27:38.721Z,48.00
2019-05-14T09:30:09.816Z,47.20
2019-05-14T09:32:38.972Z,48.00
2019-05-14T09:35:09.742Z,48.70
2019-05-14T09:37:39.565Z,48.50
2019-05-14T09:40:08.859Z,48.80
2019-05-14T09:42:39.282Z,50.20
2019-05-14T09:45:11.073Z,48.70
2019-05-14T09:47:38.992Z,45.40
2019-05-14T09:50:22.304Z,44.70
2019-05-14T09:52:39.814Z,44.70
2019-05-14T09:55:09.388Z,45.00
2019-05-14T09:57:38.764Z,45.30
2019-05-14T10:00:09.197Z,44.10
2019-05-14T10:02:39.344Z,43.20
2019-05-14T10:05:09.167Z,42.00
2019-05-14T10:07:39.166Z,41.80
2019-05-14T10:10:09.171Z,42.30
2019-05-14T10:12:47.994Z,42.70
2019-05-14T10:15:08.915Z,43.50
2019-05-14T10:17:39.206Z,42.50
2019-05-14T10:20:08.807Z,42.00
2019-05-14T10:22:39.645Z,42.30
2019-05-14T10:25:09.049Z,42.70
2019-05-14T10:27:37.830Z,41.40
2019-05-14T10:30:10.335Z,42.90
2019-05-14T10:32:41.344Z,43.10
2019-05-14T10:35:15.782Z,44.00
2019-05-14T10:37:44.419Z,43.60
2019-05-14T10:40:13.011Z,43.90
2019-05-14T10:42:41.610Z,43.30
2019-05-14T10:45:12.955Z,43.50
2019-05-14T10:47:40.589Z,43.70
2019-05-14T10:50:13.777Z,43.70
2019-05-14T10:52:41.151Z,43.70
2019-05-14T10:55:10.617Z,43.80
2019-05-14T10:57:39.301Z,43.90
2019-05-14T11:00:09.003Z,44.30
2019-05-14T11:02:38.760Z,44.30
2019-05-14T11:05:08.663Z,43.40
2019-05-14T11:07:41.494Z,42.70
2019-05-14T11:10:09.228Z,42.30
2019-05-14T11:12:39.522Z,43.00
2019-05-14T11:15:09.686Z,43.80
2019-05-14T11:17:40.677Z,43.80
2019-05-14T11:20:08.577Z,45.00
2019-05-14T11:22:37.087Z,43.80
2019-05-14T11:25:09.134Z,42.50
2019-05-14T11:27:38.877Z,42.20
2019-05-14T11:30:09.085Z,42.50
2019-05-14T11:32:38.518Z,43.30
2019-05-14T11:35:13.111Z,43.20
2019-05-14T11:37:41.649Z,43.60
2019-05-14T11:40:10.633Z,43.70
2019-05-14T11:42:39.158Z,43.50
2019-05-14T11:45:10.150Z,43.40
2019-05-14T11:47:38.578Z,43.20
2019-05-14T11:50:09.932Z,42.90
2019-05-14T11:52:38.843Z,42.30
2019-05-14T11:55:09.109Z,42.50
2019-05-14T11:57:37.786Z,42.30
2019-05-14T12:00:08.629Z,42.40
2019-05-14T12:02:38.512Z,41.50
2019-05-14T12:05:08.941Z,41.40
2019-05-14T12:07:38.884Z,41.80
2019-05-14T12:10:29.121Z,42.10
2019-05-14T12:12:58.406Z,42.80
2019-05-14T12:15:27.083Z,42.60
2019-05-14T12:17:55.506Z,42.70
2019-05-14T12:20:24.700Z,43.30
2019-05-14T12:22:53.246Z,43.90
2019-05-14T12:25:21.755Z,44.90
2019-05-14T12:27:50.347Z,43.80
2019-05-14T12:30:19.637Z,42.80
2019-05-14T12:32:50.156Z,42.40
2019-05-14T12:35:19.731Z,41.40
2019-05-14T12:37:48.538Z,40.50
2019-05-14T12:40:19.371Z,40.20
2019-05-14T12:42:49.668Z,40.70
2019-05-14T12:45:39.382Z,41.80
2019-05-14T12:48:09.299Z,41.70
2019-05-14T12:50:39.180Z,42.20
2019-05-14T12:53:08.449Z,41.70
2019-05-14T12:55:39.807Z,41.80
2019-05-14T12:58:08.240Z,40.60
2019-05-14T13:00:38.927Z,39.70
2019-05-14T13:03:09.104Z,39.30
2019-05-14T13:05:37.228Z,40.30
2019-05-14T13:08:05.797Z,40.90
2019-05-14T13:10:38.385Z,41.40
2019-05-14T13:13:08.259Z,42.30
2019-05-14T13:15:55.554Z,41.80
2019-05-14T13:18:24.055Z,42.50
2019-05-14T13:20:52.510Z,40.70
2019-05-14T13:23:21.051Z,40.80
2019-05-14T13:25:49.496Z,40.90
2019-05-14T13:28:19.366Z,40.50
2019-05-14T13:30:48.873Z,39.40
2019-05-14T13:33:19.256Z,39.10
2019-05-14T13:35:48.343Z,39.20
2019-05-14T13:38:17.105Z,39.60
2019-05-14T13:40:48.869Z,40.20
2019-05-14T13:43:18.745Z,41.10
2019-05-14T13:45:49.180Z,41.90
2019-05-14T13:48:21.172Z,41.10
2019-05-14T13:50:49.271Z,40.40
2019-05-14T13:53:18.968Z,40.20
2019-05-14T13:55:56.751Z,39.80
2019-05-14T13:58:20.766Z,39.20
2019-05-14T14:00:52.040Z,38.10
2019-05-14T14:03:20.141Z,38.20
2019-05-14T14:05:49.702Z,38.00
2019-05-14T14:08:19.325Z,38.10
2019-05-14T14:10:52.944Z,38.80
2019-05-14T14:13:19.717Z,39.10
2019-05-14T14:15:49.086Z,39.50
2019-05-14T14:18:20.925Z,40.10
2019-05-14T14:20:48.883Z,40.40
2019-05-14T14:23:25.596Z,40.10
2019-05-14T14:25:53.561Z,39.70
2019-05-14T14:28:18.146Z,40.00
2019-05-14T14:30:48.993Z,40.80
2019-05-14T14:33:18.507Z,41.20
2019-05-14T14:35:49.013Z,41.50
2019-05-14T14:38:20.136Z,40.80
2019-05-14T14:40:48.570Z,40.20
2019-05-14T14:43:18.912Z,40.40
2019-05-14T14:45:50.557Z,40.10
2019-05-14T14:48:20.313Z,39.90
2019-05-14T14:50:49.973Z,40.10
2019-05-14T14:53:41.351Z,40.50
2019-05-14T14:55:52.589Z,40.40
2019-05-14T14:58:21.063Z,40.40
2019-05-14T15:00:49.497Z,41.00
2019-05-14T15:03:23.511Z,40.40
2019-05-14T15:05:52.151Z,40.40
2019-05-14T15:08:20.727Z,40.40
2019-05-14T15:10:49.203Z,40.30
2019-05-14T15:13:17.648Z,39.40
2019-05-14T15:15:49.192Z,39.20
2019-05-14T15:18:18.621Z,39.20
2019-05-14T15:20:48.872Z,39.50
2019-05-14T15:23:19.137Z,39.30
2019-05-14T15:25:46.775Z,38.70
2019-05-14T15:28:15.361Z,38.80
2019-05-14T15:30:43.805Z,38.50
2019-05-14T15:33:15.136Z,37.30
2019-05-14T15:35:43.567Z,37.60
2019-05-14T15:38:12.018Z,37.90
2019-05-14T15:40:40.480Z,38.70
2019-05-14T15:43:09.851Z,39.10
2019-05-14T15:45:38.785Z,39.60
2019-05-14T15:48:08.932Z,39.80
2019-05-14T15:50:39.025Z,39.40
2019-05-14T15:53:10.907Z,39.30
2019-05-14T15:55:39.476Z,39.50
2019-05-14T15:58:08.673Z,39.40
2019-05-14T16:00:38.618Z,38.70
2019-05-14T16:03:08.757Z,38.70
2019-05-14T16:05:39.430Z,38.80
2019-05-14T16:08:07.911Z,38.90
2019-05-14T16:10:39.786Z,38.90
2019-05-14T16:13:28.579Z,38.40
2019-05-14T16:16:19.146Z,38.30
2019-05-14T16:18:48.040Z,38.20
2019-05-14T16:21:18.210Z,38.50
2019-05-14T16:23:46.973Z,38.30
2019-05-14T16:26:15.483Z,38.00
2019-05-14T16:28:44.191Z,38.70
2019-05-14T16:31:12.747Z,39.40
2019-05-14T16:33:41.257Z,39.80
2019-05-14T16:36:09.724Z,39.90
2019-05-14T16:38:39.434Z,39.90
2019-05-14T16:41:08.238Z,39.60
2019-05-14T16:43:39.510Z,39.50
2019-05-14T16:46:09.557Z,39.90
2019-05-14T16:48:39.415Z,40.10
2019-05-14T16:51:08.910Z,40.10
2019-05-14T16:53:38.138Z,39.60
2019-05-14T16:56:08.134Z,39.30
2019-05-14T16:58:58.352Z,38.60
2019-05-14T17:01:34.176Z,38.30
2019-05-14T17:04:02.711Z,38.60
2019-05-14T17:06:34.511Z,39.30
2019-05-14T17:09:05.436Z,39.80
2019-05-14T17:11:33.926Z,40.70
2019-05-14T17:14:02.638Z,41.40
2019-05-14T17:16:31.356Z,41.70
2019-05-14T17:19:04.224Z,42.30
2019-05-14T17:21:32.767Z,43.00
2019-05-14T17:24:02.883Z,43.70
2019-05-14T17:26:31.367Z,44.30
2019-05-14T17:29:00.103Z,44.30
2019-05-14T17:31:31.152Z,44.00
2019-05-14T17:33:58.976Z,43.80
2019-05-14T17:36:28.265Z,44.20
2019-05-14T17:38:58.939Z,44.60
2019-05-14T17:41:27.224Z,44.70
2019-05-14T17:43:55.726Z,45.00
2019-05-14T17:46:24.972Z,45.40
2019-05-14T17:48:59.184Z,45.60
2019-05-14T17:51:28.437Z,45.80
2019-05-14T17:53:58.680Z,46.00
2019-05-14T17:56:28.387Z,46.70
2019-05-14T17:58:57.941Z,46.90
2019-05-14T18:01:28.796Z,47.30
2019-05-14T18:03:58.463Z,47.40
2019-05-14T18:06:28.549Z,47.70
2019-05-14T18:08:58.369Z,47.90
2019-05-14T18:11:28.408Z,48.30
2019-05-14T18:13:58.994Z,49.20
2019-05-14T18:16:28.541Z,49.50
2019-05-14T18:18:58.246Z,49.60
2019-05-14T18:21:28.518Z,50.30
2019-05-14T18:23:58.568Z,50.20
2019-05-14T18:26:29.035Z,50.50
2019-05-14T18:28:58.071Z,50.70
2019-05-14T18:31:26.947Z,51.00
2019-05-14T18:33:55.410Z,51.40
2019-05-14T18:36:23.972Z,51.50
2019-05-14T18:38:52.527Z,52.10
2019-05-14T18:41:21.008Z,52.30
2019-05-14T18:43:49.531Z,52.50
2019-05-14T18:46:19.222Z,52.70
2019-05-14T18:48:48.833Z,53.10
2019-05-14T18:51:19.618Z,53.70
2019-05-14T18:53:49.183Z,56.30
2019-05-14T18:56:23.939Z,58.30
2019-05-14T18:58:49.138Z,57.60
2019-05-14T19:01:19.670Z,57.70
2019-05-14T19:03:49.431Z,59.10
2019-05-14T19:06:18.989Z,61.70
2019-05-14T19:08:48.293Z,61.50
2019-05-14T19:11:17.152Z,61.00
2019-05-14T19:13:48.148Z,65.30
2019-05-14T19:16:16.240Z,64.40
2019-05-14T19:18:44.742Z,66.70
2019-05-14T19:21:13.328Z,68.40
2019-05-14T19:23:43.555Z,70.70
2019-05-14T19:26:12.779Z,71.00
2019-05-14T19:28:41.200Z,74.10
2019-05-14T19:31:10.168Z,74.90
2019-05-14T19:33:38.635Z,76.90
2019-05-14T19:36:08.791Z,77.80
2019-05-14T19:38:38.866Z,74.80
2019-05-14T19:41:08.633Z,75.90
2019-05-14T19:43:37.336Z,76.30
2019-05-14T19:46:05.949Z,75.60
2019-05-14T19:48:34.521Z,78.20
2019-05-14T19:51:02.995Z,76.20
2019-05-14T19:53:31.447Z,77.80
2019-05-14T19:55:59.997Z,77.50
2019-05-14T19:58:29.261Z,76.60
2019-05-14T20:00:57.931Z,75.90
2019-05-14T20:03:29.136Z,75.00
2019-05-14T20:05:58.404Z,74.20
2019-05-14T20:08:29.378Z,74.50
2019-05-14T20:10:59.678Z,74.00
2019-05-14T20:13:28.633Z,74.50
2019-05-14T20:15:59.520Z,74.60
2019-05-14T20:18:30.256Z,78.50
2019-05-14T20:20:59.243Z,83.20
2019-05-14T20:23:29.123Z,83.50
2019-05-14T20:25:58.662Z,83.40
2019-05-14T20:28:27.631Z,81.30
2019-05-14T20:31:15.410Z,83.40
2019-05-14T20:33:43.945Z,83.60
2019-05-14T20:36:23.673Z,84.80
2019-05-14T20:38:54.971Z,86.30
2019-05-14T20:41:31.157Z,86.20
2019-05-14T20:43:59.843Z,88.60
2019-05-14T20:46:28.731Z,87.00
2019-05-14T20:48:59.203Z,87.50
2019-05-14T20:51:31.225Z,86.50
2019-05-14T20:54:01.515Z,86.10
2019-05-14T20:56:30.023Z,83.80
2019-05-14T20:58:59.496Z,82.50
2019-05-14T21:01:29.084Z,81.90
2019-05-14T21:03:59.289Z,82.80
2019-05-14T21:06:28.174Z,84.70
2019-05-14T21:08:58.470Z,82.30
2019-05-14T21:11:28.761Z,85.90
2019-05-14T21:13:58.122Z,85.80
2019-05-14T21:16:28.247Z,86.90
2019-05-14T21:18:59.241Z,84.60
2019-05-14T21:21:28.252Z,85.10
2019-05-14T21:23:58.720Z,84.90
2019-05-14T21:26:29.197Z,83.40
2019-05-14T21:28:58.277Z,84.10
2019-05-14T21:31:28.411Z,84.40
2019-05-14T21:33:58.645Z,86.70
2019-05-14T21:36:28.367Z,84.70
2019-05-14T21:38:58.791Z,87.90
2019-05-14T21:41:29.009Z,84.90
2019-05-14T21:43:58.409Z,84.90
2019-05-14T21:46:28.781Z,85.80
2019-05-14T21:48:58.577Z,88.10
2019-05-14T21:51:28.367Z,90.40
2019-05-14T21:53:58.832Z,88.80
2019-05-14T21:56:29.181Z,90.90
2019-05-14T21:59:01.039Z,91.40
2019-05-14T22:01:31.054Z,92.00
2019-05-14T22:03:59.296Z,92.40
2019-05-14T22:06:29.111Z,91.40
2019-05-14T22:08:59.101Z,91.90
2019-05-14T22:11:28.233Z,92.00
2019-05-14T22:13:58.299Z,93.00
2019-05-14T22:16:28.075Z,93.40
2019-05-14T22:18:59.131Z,93.90
2019-05-14T22:21:28.889Z,93.80
2019-05-14T22:23:58.897Z,93.90
2019-05-14T22:26:28.173Z,94.00
2019-05-14T22:28:58.644Z,94.80
2019-05-14T22:31:28.914Z,95.00
2019-05-14T22:33:58.261Z,95.20
2019-05-14T22:36:29.094Z,95.00
2019-05-14T22:38:57.873Z,95.00
2019-05-14T22:41:28.950Z,95.30
2019-05-14T22:44:00.169Z,95.50
2019-05-14T22:46:28.861Z,96.00
2019-05-14T22:48:58.629Z,95.90
2019-05-14T22:51:27.407Z,95.60
2019-05-14T22:53:55.822Z,95.90
2019-05-14T22:56:24.286Z,96.00
2019-05-14T22:58:52.812Z,95.70
2019-05-14T23:01:21.675Z,95.10
2019-05-14T23:03:50.227Z,95.30
2019-05-14T23:06:19.040Z,95.80
2019-05-14T23:08:48.704Z,97.00
2019-05-14T23:11:19.844Z,97.20
2019-05-14T23:13:48.759Z,97.40
2019-05-14T23:16:30.922Z,97.80
2019-05-14T23:18:48.709Z,97.90
2019-05-14T23:21:17.522Z,97.90
2019-05-14T23:23:46.043Z,98.00
2019-05-14T23:26:14.594Z,98.30
2019-05-14T23:28:45.857Z,99.00
2019-05-14T23:31:13.391Z,99.60
2019-05-14T23:33:41.875Z,99.40
2019-05-14T23:36:10.832Z,98.50
2019-05-14T23:38:39.357Z,98.20
2019-05-14T23:41:08.633Z,97.90
2019-05-14T23:43:39.033Z,98.10
2019-05-14T23:46:09.317Z,98.10
2019-05-14T23:48:39.167Z,97.90
2019-05-14T23:51:08.154Z,99.10
2019-05-14T23:53:39.021Z,99.90
2019-05-14T23:56:08.591Z,99.90
2019-05-14T23:58:37.146Z,99.90
